sensor_id;sensor_type;location;lat;lon;timestamp;temperature;humidity
29803;DHT22;16702;50.898;4.662;2023-03-03T00:02:10;6.00;99.90
29803;DHT22;16702;50.898;4.662;2023-03-03T00:04:41;5.90;99.90
29803;DHT22;16702;50.898;4.662;2023-03-03T00:07:11;5.90;99.90
29803;DHT22;16702;50.898;4.662;2023-03-03T00:09:48;5.90;99.90
29803;DHT22;16702;50.898;4.662;2023-03-03T00:12:24;5.80;99.90
29803;DHT22;16702;50.898;4.662;2023-03-03T00:14:54;5.80;99.90
29803;DHT22;16702;50.898;4.662;2023-03-03T00:17:29;5.80;99.90
29803;DHT22;16702;50.898;4.662;2023-03-03T00:20:26;5.80;99.90
29803;DHT22;16702;50.898;4.662;2023-03-03T00:23:16;5.80;99.90
29803;DHT22;16702;50.898;4.662;2023-03-03T00:25:50;5.70;99.90
29803;DHT22;16702;50.898;4.662;2023-03-03T00:28:28;5.70;99.90
29803;DHT22;16702;50.898;4.662;2023-03-03T00:31:00;5.70;99.90
29803;DHT22;16702;50.898;4.662;2023-03-03T00:33:33;5.60;99.90
29803;DHT22;16702;50.898;4.662;2023-03-03T00:36:21;5.60;99.90
29803;DHT22;16702;50.898;4.662;2023-03-03T00:38:59;5.60;99.90
29803;DHT22;16702;50.898;4.662;2023-03-03T00:41:39;5.60;99.90
29803;DHT22;16702;50.898;4.662;2023-03-03T00:44:38;5.50;99.90
29803;DHT22;16702;50.898;4.662;2023-03-03T00:47:27;5.50;99.90
29803;DHT22;16702;50.898;4.662;2023-03-03T00:50:24;5.50;99.90
29803;DHT22;16702;50.898;4.662;2023-03-03T00:53:02;5.50;99.90
29803;DHT22;16702;50.898;4.662;2023-03-03T00:55:33;5.40;99.90
29803;DHT22;16702;50.898;4.662;2023-03-03T00:58:04;5.50;99.90
29803;DHT22;16702;50.898;4.662;2023-03-03T01:00:42;5.40;99.90
29803;DHT22;16702;50.898;4.662;2023-03-03T01:03:18;5.40;99.90
29803;DHT22;16702;50.898;4.662;2023-03-03T01:05:49;5.30;99.90
29803;DHT22;16702;50.898;4.662;2023-03-03T01:08:19;5.30;99.90
29803;DHT22;16702;50.898;4.662;2023-03-03T01:10:52;5.30;99.90
29803;DHT22;16702;50.898;4.662;2023-03-03T01:13:26;5.30;99.90
29803;DHT22;16702;50.898;4.662;2023-03-03T01:16:00;5.30;99.90
29803;DHT22;16702;50.898;4.662;2023-03-03T01:18:31;5.30;99.90
29803;DHT22;16702;50.898;4.662;2023-03-03T01:21:02;5.30;99.90
29803;DHT22;16702;50.898;4.662;2023-03-03T01:23:33;5.20;99.90
29803;DHT22;16702;50.898;4.662;2023-03-03T01:26:04;5.20;99.90
29803;DHT22;16702;50.898;4.662;2023-03-03T01:28:35;5.20;99.90
29803;DHT22;16702;50.898;4.662;2023-03-03T01:31:08;5.20;99.90
29803;DHT22;16702;50.898;4.662;2023-03-03T01:33:39;5.10;99.90
29803;DHT22;16702;50.898;4.662;2023-03-03T01:36:09;5.00;99.90
29803;DHT22;16702;50.898;4.662;2023-03-03T01:38:40;5.10;99.90
29803;DHT22;16702;50.898;4.662;2023-03-03T01:41:11;5.00;99.90
29803;DHT22;16702;50.898;4.662;2023-03-03T01:43:44;5.00;99.90
29803;DHT22;16702;50.898;4.662;2023-03-03T01:46:39;4.90;99.90
29803;DHT22;16702;50.898;4.662;2023-03-03T01:49:14;5.00;99.90
29803;DHT22;16702;50.898;4.662;2023-03-03T01:51:51;4.90;99.90
29803;DHT22;16702;50.898;4.662;2023-03-03T01:54:28;4.90;99.90
29803;DHT22;16702;50.898;4.662;2023-03-03T01:57:04;5.00;99.90
29803;DHT22;16702;50.898;4.662;2023-03-03T01:59:39;4.90;99.90
29803;DHT22;16702;50.898;4.662;2023-03-03T02:02:14;4.90;99.90
29803;DHT22;16702;50.898;4.662;2023-03-03T02:04:45;4.80;99.90
29803;DHT22;16702;50.898;4.662;2023-03-03T02:07:16;4.80;99.90
29803;DHT22;16702;50.898;4.662;2023-03-03T02:09:53;4.80;99.90
29803;DHT22;16702;50.898;4.662;2023-03-03T02:12:30;4.90;99.90
29803;DHT22;16702;50.898;4.662;2023-03-03T02:15:15;4.70;99.90
29803;DHT22;16702;50.898;4.662;2023-03-03T02:17:51;4.70;99.90
29803;DHT22;16702;50.898;4.662;2023-03-03T02:20:40;4.70;99.90
29803;DHT22;16702;50.898;4.662;2023-03-03T02:23:16;4.70;99.90
29803;DHT22;16702;50.898;4.662;2023-03-03T02:26:09;4.60;99.90
29803;DHT22;16702;50.898;4.662;2023-03-03T02:28:41;4.60;99.90
29803;DHT22;16702;50.898;4.662;2023-03-03T02:31:15;4.50;99.90
29803;DHT22;16702;50.898;4.662;2023-03-03T02:33:48;4.50;99.90
29803;DHT22;16702;50.898;4.662;2023-03-03T02:36:20;4.50;99.90
29803;DHT22;16702;50.898;4.662;2023-03-03T02:38:55;4.50;99.90
29803;DHT22;16702;50.898;4.662;2023-03-03T02:41:33;4.60;99.90
29803;DHT22;16702;50.898;4.662;2023-03-03T02:44:07;4.50;99.90
29803;DHT22;16702;50.898;4.662;2023-03-03T02:46:39;4.60;99.90
29803;DHT22;16702;50.898;4.662;2023-03-03T02:49:12;4.50;99.90
29803;DHT22;16702;50.898;4.662;2023-03-03T02:51:43;4.40;99.90
29803;DHT22;16702;50.898;4.662;2023-03-03T02:54:14;4.40;99.90
29803;DHT22;16702;50.898;4.662;2023-03-03T02:56:48;4.40;99.90
29803;DHT22;16702;50.898;4.662;2023-03-03T02:59:19;4.40;99.90
29803;DHT22;16702;50.898;4.662;2023-03-03T03:01:52;4.40;99.90
29803;DHT22;16702;50.898;4.662;2023-03-03T03:04:24;4.30;99.90
29803;DHT22;16702;50.898;4.662;2023-03-03T03:06:55;4.30;99.90
29803;DHT22;16702;50.898;4.662;2023-03-03T03:09:28;4.40;99.90
29803;DHT22;16702;50.898;4.662;2023-03-03T03:12:01;4.50;99.90
29803;DHT22;16702;50.898;4.662;2023-03-03T03:14:34;4.30;99.90
29803;DHT22;16702;50.898;4.662;2023-03-03T03:17:05;4.40;99.90
29803;DHT22;16702;50.898;4.662;2023-03-03T03:19:38;4.40;99.90
29803;DHT22;16702;50.898;4.662;2023-03-03T03:22:08;4.40;99.90
29803;DHT22;16702;50.898;4.662;2023-03-03T03:24:39;4.40;99.90
29803;DHT22;16702;50.898;4.662;2023-03-03T03:27:12;4.40;99.90
29803;DHT22;16702;50.898;4.662;2023-03-03T03:29:43;4.40;99.90
29803;DHT22;16702;50.898;4.662;2023-03-03T03:32:13;4.40;99.90
29803;DHT22;16702;50.898;4.662;2023-03-03T03:34:44;4.40;99.90
29803;DHT22;16702;50.898;4.662;2023-03-03T03:37:15;4.50;99.90
29803;DHT22;16702;50.898;4.662;2023-03-03T03:39:46;4.40;99.90
29803;DHT22;16702;50.898;4.662;2023-03-03T03:42:21;4.40;99.90
29803;DHT22;16702;50.898;4.662;2023-03-03T03:44:51;4.40;99.90
29803;DHT22;16702;50.898;4.662;2023-03-03T03:47:24;4.30;99.90
29803;DHT22;16702;50.898;4.662;2023-03-03T03:49:55;4.30;99.90
29803;DHT22;16702;50.898;4.662;2023-03-03T03:52:26;4.30;99.90
29803;DHT22;16702;50.898;4.662;2023-03-03T03:54:56;4.40;99.90
29803;DHT22;16702;50.898;4.662;2023-03-03T03:57:30;4.30;99.90
29803;DHT22;16702;50.898;4.662;2023-03-03T04:00:00;4.10;99.90
29803;DHT22;16702;50.898;4.662;2023-03-03T04:02:39;4.20;99.90
29803;DHT22;16702;50.898;4.662;2023-03-03T04:05:13;4.20;99.90
29803;DHT22;16702;50.898;4.662;2023-03-03T04:07:44;4.00;99.90
29803;DHT22;16702;50.898;4.662;2023-03-03T04:10:16;4.10;99.90
29803;DHT22;16702;50.898;4.662;2023-03-03T04:12:51;4.20;99.90
29803;DHT22;16702;50.898;4.662;2023-03-03T04:15:22;4.10;99.90
29803;DHT22;16702;50.898;4.662;2023-03-03T04:17:56;4.00;99.90
29803;DHT22;16702;50.898;4.662;2023-03-03T04:20:27;4.20;99.90
29803;DHT22;16702;50.898;4.662;2023-03-03T04:22:57;4.00;99.90
29803;DHT22;16702;50.898;4.662;2023-03-03T04:25:30;4.00;99.90
29803;DHT22;16702;50.898;4.662;2023-03-03T04:28:06;4.00;99.90
29803;DHT22;16702;50.898;4.662;2023-03-03T04:30:38;4.10;99.90
29803;DHT22;16702;50.898;4.662;2023-03-03T04:33:08;4.10;99.90
29803;DHT22;16702;50.898;4.662;2023-03-03T04:35:40;3.90;99.90
29803;DHT22;16702;50.898;4.662;2023-03-03T04:38:10;3.80;99.90
29803;DHT22;16702;50.898;4.662;2023-03-03T04:40:42;3.80;99.90
29803;DHT22;16702;50.898;4.662;2023-03-03T04:43:15;3.90;99.90
29803;DHT22;16702;50.898;4.662;2023-03-03T04:45:46;4.00;99.90
29803;DHT22;16702;50.898;4.662;2023-03-03T04:48:17;4.00;99.90
29803;DHT22;16702;50.898;4.662;2023-03-03T04:50:47;4.00;99.90
29803;DHT22;16702;50.898;4.662;2023-03-03T04:53:19;4.00;99.90
29803;DHT22;16702;50.898;4.662;2023-03-03T04:55:49;4.00;99.90
29803;DHT22;16702;50.898;4.662;2023-03-03T04:58:24;4.00;99.90
29803;DHT22;16702;50.898;4.662;2023-03-03T05:00:56;3.90;99.90
29803;DHT22;16702;50.898;4.662;2023-03-03T05:03:29;4.10;99.90
29803;DHT22;16702;50.898;4.662;2023-03-03T05:06:00;4.10;99.90
29803;DHT22;16702;50.898;4.662;2023-03-03T05:08:30;4.00;99.90
29803;DHT22;16702;50.898;4.662;2023-03-03T05:11:01;4.00;99.90
29803;DHT22;16702;50.898;4.662;2023-03-03T05:13:34;4.00;99.90
29803;DHT22;16702;50.898;4.662;2023-03-03T05:16:05;4.00;99.90
29803;DHT22;16702;50.898;4.662;2023-03-03T05:18:36;4.00;99.90
29803;DHT22;16702;50.898;4.662;2023-03-03T05:21:07;3.90;99.90
29803;DHT22;16702;50.898;4.662;2023-03-03T05:23:38;4.00;99.90
29803;DHT22;16702;50.898;4.662;2023-03-03T05:26:08;4.10;99.90
29803;DHT22;16702;50.898;4.662;2023-03-03T05:28:41;3.90;99.90
29803;DHT22;16702;50.898;4.662;2023-03-03T05:31:11;3.90;99.90
29803;DHT22;16702;50.898;4.662;2023-03-03T05:33:42;4.00;99.90
29803;DHT22;16702;50.898;4.662;2023-03-03T05:36:14;3.90;99.90
29803;DHT22;16702;50.898;4.662;2023-03-03T05:38:44;4.00;99.90
29803;DHT22;16702;50.898;4.662;2023-03-03T05:41:15;3.90;99.90
29803;DHT22;16702;50.898;4.662;2023-03-03T05:43:48;3.90;99.90
29803;DHT22;16702;50.898;4.662;2023-03-03T05:46:18;3.90;99.90
29803;DHT22;16702;50.898;4.662;2023-03-03T05:48:48;4.00;99.90
29803;DHT22;16702;50.898;4.662;2023-03-03T05:51:19;3.90;99.90
29803;DHT22;16702;50.898;4.662;2023-03-03T05:53:49;4.00;99.90
29803;DHT22;16702;50.898;4.662;2023-03-03T05:56:22;3.90;99.90
29803;DHT22;16702;50.898;4.662;2023-03-03T05:58:55;3.60;99.90
29803;DHT22;16702;50.898;4.662;2023-03-03T06:01:28;3.70;99.90
29803;DHT22;16702;50.898;4.662;2023-03-03T06:03:59;3.70;99.90
29803;DHT22;16702;50.898;4.662;2023-03-03T06:06:29;3.80;99.90
29803;DHT22;16702;50.898;4.662;2023-03-03T06:09:00;3.70;99.90
29803;DHT22;16702;50.898;4.662;2023-03-03T06:11:31;3.70;99.90
29803;DHT22;16702;50.898;4.662;2023-03-03T06:14:04;3.70;99.90
29803;DHT22;16702;50.898;4.662;2023-03-03T06:16:34;3.80;99.90
29803;DHT22;16702;50.898;4.662;2023-03-03T06:19:04;3.60;99.90
29803;DHT22;16702;50.898;4.662;2023-03-03T06:21:35;3.70;99.90
29803;DHT22;16702;50.898;4.662;2023-03-03T06:24:06;3.60;99.90
29803;DHT22;16702;50.898;4.662;2023-03-03T06:26:37;3.60;99.90
29803;DHT22;16702;50.898;4.662;2023-03-03T06:29:10;3.70;99.90
29803;DHT22;16702;50.898;4.662;2023-03-03T06:31:42;3.60;99.90
29803;DHT22;16702;50.898;4.662;2023-03-03T06:34:13;3.70;99.90
29803;DHT22;16702;50.898;4.662;2023-03-03T06:36:43;3.60;99.90
29803;DHT22;16702;50.898;4.662;2023-03-03T06:39:14;3.40;99.90
29803;DHT22;16702;50.898;4.662;2023-03-03T06:41:44;3.60;99.90
29803;DHT22;16702;50.898;4.662;2023-03-03T06:44:17;3.40;99.90
29803;DHT22;16702;50.898;4.662;2023-03-03T06:46:48;3.50;99.90
29803;DHT22;16702;50.898;4.662;2023-03-03T06:49:19;3.60;99.90
29803;DHT22;16702;50.898;4.662;2023-03-03T06:51:50;3.50;99.90
29803;DHT22;16702;50.898;4.662;2023-03-03T06:54:23;3.50;99.90
29803;DHT22;16702;50.898;4.662;2023-03-03T06:57:00;3.60;99.90
29803;DHT22;16702;50.898;4.662;2023-03-03T06:59:35;3.60;99.90
29803;DHT22;16702;50.898;4.662;2023-03-03T07:02:13;3.60;99.90
29803;DHT22;16702;50.898;4.662;2023-03-03T07:04:46;3.50;99.90
29803;DHT22;16702;50.898;4.662;2023-03-03T07:07:19;3.50;99.90
29803;DHT22;16702;50.898;4.662;2023-03-03T07:09:52;3.60;99.90
29803;DHT22;16702;50.898;4.662;2023-03-03T07:12:25;3.40;99.90
29803;DHT22;16702;50.898;4.662;2023-03-03T07:15:12;3.50;99.90
29803;DHT22;16702;50.898;4.662;2023-03-03T07:17:45;3.60;99.90
29803;DHT22;16702;50.898;4.662;2023-03-03T07:20:20;3.40;99.90
29803;DHT22;16702;50.898;4.662;2023-03-03T07:22:51;3.40;99.90
29803;DHT22;16702;50.898;4.662;2023-03-03T07:25:28;3.40;99.90
29803;DHT22;16702;50.898;4.662;2023-03-03T07:28:06;3.30;99.90
29803;DHT22;16702;50.898;4.662;2023-03-03T07:30:43;3.20;99.90
29803;DHT22;16702;50.898;4.662;2023-03-03T07:33:19;3.30;99.90
29803;DHT22;16702;50.898;4.662;2023-03-03T07:35:54;3.30;99.90
29803;DHT22;16702;50.898;4.662;2023-03-03T07:38:30;3.30;99.90
29803;DHT22;16702;50.898;4.662;2023-03-03T07:41:07;3.30;99.90
29803;DHT22;16702;50.898;4.662;2023-03-03T07:43:43;3.30;99.90
29803;DHT22;16702;50.898;4.662;2023-03-03T07:46:27;3.20;99.90
29803;DHT22;16702;50.898;4.662;2023-03-03T07:48:58;3.20;99.90
29803;DHT22;16702;50.898;4.662;2023-03-03T07:51:36;3.30;99.90
29803;DHT22;16702;50.898;4.662;2023-03-03T07:54:22;3.20;99.90
29803;DHT22;16702;50.898;4.662;2023-03-03T07:56:56;3.20;99.90
29803;DHT22;16702;50.898;4.662;2023-03-03T07:59:26;3.30;99.90
29803;DHT22;16702;50.898;4.662;2023-03-03T08:02:01;3.20;99.90
29803;DHT22;16702;50.898;4.662;2023-03-03T08:04:36;3.40;99.90
29803;DHT22;16702;50.898;4.662;2023-03-03T08:07:11;3.30;99.90
29803;DHT22;16702;50.898;4.662;2023-03-03T08:09:45;3.30;99.90
29803;DHT22;16702;50.898;4.662;2023-03-03T08:12:38;3.40;99.90
29803;DHT22;16702;50.898;4.662;2023-03-03T08:15:21;3.30;99.90
29803;DHT22;16702;50.898;4.662;2023-03-03T08:17:54;3.30;99.90
29803;DHT22;16702;50.898;4.662;2023-03-03T08:20:49;3.40;99.90
29803;DHT22;16702;50.898;4.662;2023-03-03T08:23:20;3.40;99.90
29803;DHT22;16702;50.898;4.662;2023-03-03T08:25:52;3.40;99.90
29803;DHT22;16702;50.898;4.662;2023-03-03T08:28:22;3.30;99.90
29803;DHT22;16702;50.898;4.662;2023-03-03T08:30:53;3.40;99.90
29803;DHT22;16702;50.898;4.662;2023-03-03T08:33:47;3.40;99.90
29803;DHT22;16702;50.898;4.662;2023-03-03T08:36:17;3.40;99.90
29803;DHT22;16702;50.898;4.662;2023-03-03T08:38:48;3.50;99.90
29803;DHT22;16702;50.898;4.662;2023-03-03T08:41:18;3.60;99.90
29803;DHT22;16702;50.898;4.662;2023-03-03T08:43:49;3.50;99.90
29803;DHT22;16702;50.898;4.662;2023-03-03T08:46:19;3.50;99.90
29803;DHT22;16702;50.898;4.662;2023-03-03T08:48:52;3.50;99.90
29803;DHT22;16702;50.898;4.662;2023-03-03T08:51:23;3.50;99.90
29803;DHT22;16702;50.898;4.662;2023-03-03T08:53:54;3.60;99.90
29803;DHT22;16702;50.898;4.662;2023-03-03T08:56:24;3.50;99.90
29803;DHT22;16702;50.898;4.662;2023-03-03T08:58:55;3.50;99.90
29803;DHT22;16702;50.898;4.662;2023-03-03T09:01:29;3.50;99.90
29803;DHT22;16702;50.898;4.662;2023-03-03T09:04:03;3.50;99.90
29803;DHT22;16702;50.898;4.662;2023-03-03T09:06:34;3.50;99.90
29803;DHT22;16702;50.898;4.662;2023-03-03T09:09:05;3.50;99.90
29803;DHT22;16702;50.898;4.662;2023-03-03T09:11:36;3.40;99.90
29803;DHT22;16702;50.898;4.662;2023-03-03T09:14:10;3.40;99.90
29803;DHT22;16702;50.898;4.662;2023-03-03T09:16:46;3.40;99.90
29803;DHT22;16702;50.898;4.662;2023-03-03T09:19:26;3.40;99.90
29803;DHT22;16702;50.898;4.662;2023-03-03T09:22:10;3.40;99.90
29803;DHT22;16702;50.898;4.662;2023-03-03T09:24:49;3.30;99.90
29803;DHT22;16702;50.898;4.662;2023-03-03T09:27:27;3.30;99.90
29803;DHT22;16702;50.898;4.662;2023-03-03T09:30:01;3.40;99.90
29803;DHT22;16702;50.898;4.662;2023-03-03T09:32:39;3.50;99.90
29803;DHT22;16702;50.898;4.662;2023-03-03T09:35:36;3.50;99.90
29803;DHT22;16702;50.898;4.662;2023-03-03T09:38:20;3.50;99.90
29803;DHT22;16702;50.898;4.662;2023-03-03T09:44:41;3.50;99.90
29803;DHT22;16702;50.898;4.662;2023-03-03T09:47:30;3.60;99.90
29803;DHT22;16702;50.898;4.662;2023-03-03T09:50:11;3.60;99.90
29803;DHT22;16702;50.898;4.662;2023-03-03T09:52:55;3.60;99.90
29803;DHT22;16702;50.898;4.662;2023-03-03T09:55:36;3.60;99.90
29803;DHT22;16702;50.898;4.662;2023-03-03T09:58:25;3.60;99.90
29803;DHT22;16702;50.898;4.662;2023-03-03T10:01:09;3.70;99.90
29803;DHT22;16702;50.898;4.662;2023-03-03T10:03:58;3.60;99.90
29803;DHT22;16702;50.898;4.662;2023-03-03T10:06:39;3.80;99.90
29803;DHT22;16702;50.898;4.662;2023-03-03T10:09:45;3.70;99.90
29803;DHT22;16702;50.898;4.662;2023-03-03T10:12:21;3.70;99.90
29803;DHT22;16702;50.898;4.662;2023-03-03T10:15:12;3.70;99.90
29803;DHT22;16702;50.898;4.662;2023-03-03T10:17:49;3.70;99.90
29803;DHT22;16702;50.898;4.662;2023-03-03T10:20:43;3.80;99.90
29803;DHT22;16702;50.898;4.662;2023-03-03T10:23:20;3.80;99.90
29803;DHT22;16702;50.898;4.662;2023-03-03T10:26:03;3.80;99.90
29803;DHT22;16702;50.898;4.662;2023-03-03T10:31:40;3.90;99.90
29803;DHT22;16702;50.898;4.662;2023-03-03T10:34:25;4.00;99.90
29803;DHT22;16702;50.898;4.662;2023-03-03T10:37:02;4.10;99.90
29803;DHT22;16702;50.898;4.662;2023-03-03T10:39:51;4.00;99.90
29803;DHT22;16702;50.898;4.662;2023-03-03T10:42:38;4.10;99.90
29803;DHT22;16702;50.898;4.662;2023-03-03T10:45:25;4.10;99.90
29803;DHT22;16702;50.898;4.662;2023-03-03T10:48:14;4.20;99.90
29803;DHT22;16702;50.898;4.662;2023-03-03T10:50:55;4.00;99.90
29803;DHT22;16702;50.898;4.662;2023-03-03T10:53:31;4.10;99.90
29803;DHT22;16702;50.898;4.662;2023-03-03T10:56:25;4.20;99.90
29803;DHT22;16702;50.898;4.662;2023-03-03T10:59:16;4.20;99.90
29803;DHT22;16702;50.898;4.662;2023-03-03T11:01:55;4.20;99.90
29803;DHT22;16702;50.898;4.662;2023-03-03T11:04:48;4.30;99.90
29803;DHT22;16702;50.898;4.662;2023-03-03T11:07:29;4.40;99.90
29803;DHT22;16702;50.898;4.662;2023-03-03T11:10:17;4.50;99.90
29803;DHT22;16702;50.898;4.662;2023-03-03T11:12:57;4.40;99.90
29803;DHT22;16702;50.898;4.662;2023-03-03T11:15:50;4.60;99.90
29803;DHT22;16702;50.898;4.662;2023-03-03T11:18:33;4.60;99.90
29803;DHT22;16702;50.898;4.662;2023-03-03T11:21:15;4.60;99.90
29803;DHT22;16702;50.898;4.662;2023-03-03T11:24:26;4.60;99.90
29803;DHT22;16702;50.898;4.662;2023-03-03T11:27:11;4.70;99.90
29803;DHT22;16702;50.898;4.662;2023-03-03T11:29:58;4.70;99.90
29803;DHT22;16702;50.898;4.662;2023-03-03T11:32:40;4.70;99.90
29803;DHT22;16702;50.898;4.662;2023-03-03T11:35:21;4.70;99.90
29803;DHT22;16702;50.898;4.662;2023-03-03T11:38:00;4.80;99.90
29803;DHT22;16702;50.898;4.662;2023-03-03T11:40:46;4.90;99.90
29803;DHT22;16702;50.898;4.662;2023-03-03T11:43:21;4.80;99.90
29803;DHT22;16702;50.898;4.662;2023-03-03T11:46:06;4.90;99.90
29803;DHT22;16702;50.898;4.662;2023-03-03T11:48:45;5.00;99.90
29803;DHT22;16702;50.898;4.662;2023-03-03T11:51:22;5.00;99.90
29803;DHT22;16702;50.898;4.662;2023-03-03T11:54:04;5.10;99.90
29803;DHT22;16702;50.898;4.662;2023-03-03T11:56:38;5.10;99.90
29803;DHT22;16702;50.898;4.662;2023-03-03T12:02:37;5.10;99.90
29803;DHT22;16702;50.898;4.662;2023-03-03T12:05:25;5.30;99.90
29803;DHT22;16702;50.898;4.662;2023-03-03T12:08:01;5.40;99.90
29803;DHT22;16702;50.898;4.662;2023-03-03T12:10:38;5.50;99.90
29803;DHT22;16702;50.898;4.662;2023-03-03T12:13:21;5.40;99.90
29803;DHT22;16702;50.898;4.662;2023-03-03T12:16:00;5.40;99.90
29803;DHT22;16702;50.898;4.662;2023-03-03T12:18:52;5.50;99.90
29803;DHT22;16702;50.898;4.662;2023-03-03T12:21:37;5.60;99.90
29803;DHT22;16702;50.898;4.662;2023-03-03T12:24:24;6.00;99.90
29803;DHT22;16702;50.898;4.662;2023-03-03T12:27:07;5.90;99.90
29803;DHT22;16702;50.898;4.662;2023-03-03T12:29:42;6.00;99.90
29803;DHT22;16702;50.898;4.662;2023-03-03T12:32:25;6.10;99.90
29803;DHT22;16702;50.898;4.662;2023-03-03T12:35:02;6.10;99.90
29803;DHT22;16702;50.898;4.662;2023-03-03T12:37:53;6.30;99.90
29803;DHT22;16702;50.898;4.662;2023-03-03T12:40:27;6.60;99.90
29803;DHT22;16702;50.898;4.662;2023-03-03T12:43:16;6.60;99.90
29803;DHT22;16702;50.898;4.662;2023-03-03T12:45:51;6.50;99.90
29803;DHT22;16702;50.898;4.662;2023-03-03T12:48:27;6.50;99.90
29803;DHT22;16702;50.898;4.662;2023-03-03T12:51:05;6.40;99.90
29803;DHT22;16702;50.898;4.662;2023-03-03T12:54:05;6.40;99.90
29803;DHT22;16702;50.898;4.662;2023-03-03T12:56:40;6.50;99.90
29803;DHT22;16702;50.898;4.662;2023-03-03T12:59:19;6.50;99.90
29803;DHT22;16702;50.898;4.662;2023-03-03T13:02:07;6.50;99.90
29803;DHT22;16702;50.898;4.662;2023-03-03T13:04:49;6.50;99.90
29803;DHT22;16702;50.898;4.662;2023-03-03T13:07:24;6.40;99.90
29803;DHT22;16702;50.898;4.662;2023-03-03T13:10:10;6.50;99.90
29803;DHT22;16702;50.898;4.662;2023-03-03T13:12:45;6.60;99.90
29803;DHT22;16702;50.898;4.662;2023-03-03T13:15:20;6.70;99.90
29803;DHT22;16702;50.898;4.662;2023-03-03T13:18:19;6.70;99.90
29803;DHT22;16702;50.898;4.662;2023-03-03T13:20:58;6.70;99.90
29803;DHT22;16702;50.898;4.662;2023-03-03T13:23:39;6.60;99.90
29803;DHT22;16702;50.898;4.662;2023-03-03T13:26:21;6.70;99.90
29803;DHT22;16702;50.898;4.662;2023-03-03T13:29:01;6.70;99.90
29803;DHT22;16702;50.898;4.662;2023-03-03T13:31:34;6.70;99.90
29803;DHT22;16702;50.898;4.662;2023-03-03T13:34:07;6.70;99.90
29803;DHT22;16702;50.898;4.662;2023-03-03T13:36:47;6.80;99.90
29803;DHT22;16702;50.898;4.662;2023-03-03T13:39:23;6.90;99.90
29803;DHT22;16702;50.898;4.662;2023-03-03T13:42:01;7.10;99.90
29803;DHT22;16702;50.898;4.662;2023-03-03T13:44:36;7.20;99.90
29803;DHT22;16702;50.898;4.662;2023-03-03T13:47:13;7.30;99.90
29803;DHT22;16702;50.898;4.662;2023-03-03T13:49:59;7.30;99.90
29803;DHT22;16702;50.898;4.662;2023-03-03T13:52:34;7.40;99.90
29803;DHT22;16702;50.898;4.662;2023-03-03T13:55:16;7.50;99.90
29803;DHT22;16702;50.898;4.662;2023-03-03T13:58:00;7.50;99.90
29803;DHT22;16702;50.898;4.662;2023-03-03T14:00:43;7.60;99.90
29803;DHT22;16702;50.898;4.662;2023-03-03T14:06:18;7.70;99.90
29803;DHT22;16702;50.898;4.662;2023-03-03T14:09:07;7.70;99.90
29803;DHT22;16702;50.898;4.662;2023-03-03T14:11:45;7.90;99.90
29803;DHT22;16702;50.898;4.662;2023-03-03T14:14:32;8.00;99.90
29803;DHT22;16702;50.898;4.662;2023-03-03T14:17:14;7.80;99.90
29803;DHT22;16702;50.898;4.662;2023-03-03T14:19:53;7.60;99.90
29803;DHT22;16702;50.898;4.662;2023-03-03T14:22:36;7.70;99.90
29803;DHT22;16702;50.898;4.662;2023-03-03T14:25:10;7.80;99.90
29803;DHT22;16702;50.898;4.662;2023-03-03T14:28:00;7.90;99.90
29803;DHT22;16702;50.898;4.662;2023-03-03T14:30:37;8.00;99.90
29803;DHT22;16702;50.898;4.662;2023-03-03T14:33:18;7.90;99.90
29803;DHT22;16702;50.898;4.662;2023-03-03T14:35:59;8.00;99.90
29803;DHT22;16702;50.898;4.662;2023-03-03T14:38:46;8.00;99.90
29803;DHT22;16702;50.898;4.662;2023-03-03T14:41:20;7.90;99.90
29803;DHT22;16702;50.898;4.662;2023-03-03T14:44:01;8.00;99.90
29803;DHT22;16702;50.898;4.662;2023-03-03T14:47:02;8.10;99.90
29803;DHT22;16702;50.898;4.662;2023-03-03T14:49:34;8.10;99.90
29803;DHT22;16702;50.898;4.662;2023-03-03T14:52:18;8.10;99.90
29803;DHT22;16702;50.898;4.662;2023-03-03T14:54:50;8.10;99.90
29803;DHT22;16702;50.898;4.662;2023-03-03T14:57:36;8.10;99.90
29803;DHT22;16702;50.898;4.662;2023-03-03T15:00:30;8.10;99.90
29803;DHT22;16702;50.898;4.662;2023-03-03T15:03:21;8.20;99.90
29803;DHT22;16702;50.898;4.662;2023-03-03T15:05:56;8.30;99.90
29803;DHT22;16702;50.898;4.662;2023-03-03T15:08:32;8.30;99.90
29803;DHT22;16702;50.898;4.662;2023-03-03T15:11:17;8.20;99.90
29803;DHT22;16702;50.898;4.662;2023-03-03T15:13:52;8.20;99.90
29803;DHT22;16702;50.898;4.662;2023-03-03T15:16:34;8.30;99.90
29803;DHT22;16702;50.898;4.662;2023-03-03T15:19:25;8.30;99.90
29803;DHT22;16702;50.898;4.662;2023-03-03T15:22:07;8.30;99.90
29803;DHT22;16702;50.898;4.662;2023-03-03T15:24:46;8.40;99.90
29803;DHT22;16702;50.898;4.662;2023-03-03T15:27:20;8.40;99.90
29803;DHT22;16702;50.898;4.662;2023-03-03T15:30:04;8.30;99.90
29803;DHT22;16702;50.898;4.662;2023-03-03T15:32:42;8.40;99.90
29803;DHT22;16702;50.898;4.662;2023-03-03T15:35:26;8.40;99.90
29803;DHT22;16702;50.898;4.662;2023-03-03T15:38:05;8.50;99.90
29803;DHT22;16702;50.898;4.662;2023-03-03T15:40:40;8.40;99.90
29803;DHT22;16702;50.898;4.662;2023-03-03T15:43:22;8.50;99.90
29803;DHT22;16702;50.898;4.662;2023-03-03T15:46:04;8.50;99.90
29803;DHT22;16702;50.898;4.662;2023-03-03T15:48:48;8.40;99.90
29803;DHT22;16702;50.898;4.662;2023-03-03T15:51:45;8.30;99.90
29803;DHT22;16702;50.898;4.662;2023-03-03T15:54:36;8.40;99.90
29803;DHT22;16702;50.898;4.662;2023-03-03T15:57:13;8.40;99.90
29803;DHT22;16702;50.898;4.662;2023-03-03T16:00:21;8.40;99.90
29803;DHT22;16702;50.898;4.662;2023-03-03T16:02:56;8.40;99.90
29803;DHT22;16702;50.898;4.662;2023-03-03T16:05:31;8.40;99.90
29803;DHT22;16702;50.898;4.662;2023-03-03T16:08:11;8.40;99.90
29803;DHT22;16702;50.898;4.662;2023-03-03T16:10:49;8.40;99.90
29803;DHT22;16702;50.898;4.662;2023-03-03T16:13:41;8.40;99.90
29803;DHT22;16702;50.898;4.662;2023-03-03T16:16:24;8.40;99.90
29803;DHT22;16702;50.898;4.662;2023-03-03T16:19:05;8.40;99.90
29803;DHT22;16702;50.898;4.662;2023-03-03T16:22:00;8.40;99.90
29803;DHT22;16702;50.898;4.662;2023-03-03T16:24:42;8.40;99.90
29803;DHT22;16702;50.898;4.662;2023-03-03T16:27:20;8.40;99.90
29803;DHT22;16702;50.898;4.662;2023-03-03T16:30:02;8.20;99.90
29803;DHT22;16702;50.898;4.662;2023-03-03T16:32:40;8.20;99.90
29803;DHT22;16702;50.898;4.662;2023-03-03T16:35:20;8.20;99.90
29803;DHT22;16702;50.898;4.662;2023-03-03T16:37:57;8.20;99.90
29803;DHT22;16702;50.898;4.662;2023-03-03T16:40:35;8.20;99.90
29803;DHT22;16702;50.898;4.662;2023-03-03T16:43:18;8.20;99.90
29803;DHT22;16702;50.898;4.662;2023-03-03T16:45:49;8.20;99.90
29803;DHT22;16702;50.898;4.662;2023-03-03T16:48:24;8.20;99.90
29803;DHT22;16702;50.898;4.662;2023-03-03T16:51:10;8.20;99.90
29803;DHT22;16702;50.898;4.662;2023-03-03T16:53:49;8.20;99.90
29803;DHT22;16702;50.898;4.662;2023-03-03T16:56:29;8.20;99.90
29803;DHT22;16702;50.898;4.662;2023-03-03T16:59:11;8.10;99.90
29803;DHT22;16702;50.898;4.662;2023-03-03T17:01:51;8.10;99.90
29803;DHT22;16702;50.898;4.662;2023-03-03T17:04:36;8.10;99.90